sensor_id;sensor_type;location;lat;lon;timestamp;temperature;humidity
48978;DHT22;34793;48.940;2.618;2023-01-28T00:01:54;10.20;81.70
48978;DHT22;34793;48.940;2.618;2023-01-28T00:04:19;10.40;81.20
48978;DHT22;34793;48.940;2.618;2023-01-28T00:06:45;10.50;80.70
48978;DHT22;34793;48.940;2.618;2023-01-28T00:09:10;10.50;81.00
48978;DHT22;34793;48.940;2.618;2023-01-28T00:11:36;10.30;81.10
48978;DHT22;34793;48.940;2.618;2023-01-28T00:14:01;10.00;81.40
48978;DHT22;34793;48.940;2.618;2023-01-28T00:16:29;10.00;81.90
48978;DHT22;34793;48.940;2.618;2023-01-28T00:18:54;10.20;81.70
48978;DHT22;34793;48.940;2.618;2023-01-28T00:21:20;10.30;81.20
48978;DHT22;34793;48.940;2.618;2023-01-28T00:23:47;9.90;82.10
48978;DHT22;34793;48.940;2.618;2023-01-28T00:26:13;10.40;82.40
48978;DHT22;34793;48.940;2.618;2023-01-28T00:28:39;10.10;81.40
48978;DHT22;34793;48.940;2.618;2023-01-28T00:31:12;10.00;81.30
48978;DHT22;34793;48.940;2.618;2023-01-28T00:33:38;10.00;81.80
48978;DHT22;34793;48.940;2.618;2023-01-28T00:36:04;10.00;81.30
48978;DHT22;34793;48.940;2.618;2023-01-28T00:38:30;10.00;81.10
48978;DHT22;34793;48.940;2.618;2023-01-28T00:41:05;9.90;81.50
48978;DHT22;34793;48.940;2.618;2023-01-28T00:43:30;10.10;81.50
48978;DHT22;34793;48.940;2.618;2023-01-28T00:45:56;9.90;81.40
48978;DHT22;34793;48.940;2.618;2023-01-28T00:48:21;9.80;81.80
48978;DHT22;34793;48.940;2.618;2023-01-28T00:50:47;9.60;81.80
48978;DHT22;34793;48.940;2.618;2023-01-28T00:53:12;9.70;81.80
48978;DHT22;34793;48.940;2.618;2023-01-28T00:55:38;9.70;82.40
48978;DHT22;34793;48.940;2.618;2023-01-28T00:58:03;9.60;82.00
48978;DHT22;34793;48.940;2.618;2023-01-28T01:00:29;9.50;82.20
48978;DHT22;34793;48.940;2.618;2023-01-28T01:02:54;9.80;81.70
48978;DHT22;34793;48.940;2.618;2023-01-28T01:05:20;10.00;81.40
48978;DHT22;34793;48.940;2.618;2023-01-28T01:07:45;10.10;80.60
48978;DHT22;34793;48.940;2.618;2023-01-28T01:10:12;10.00;80.80
48978;DHT22;34793;48.940;2.618;2023-01-28T01:12:38;10.10;80.70
48978;DHT22;34793;48.940;2.618;2023-01-28T01:15:04;10.30;80.10
48978;DHT22;34793;48.940;2.618;2023-01-28T01:17:33;10.20;80.20
48978;DHT22;34793;48.940;2.618;2023-01-28T01:19:58;10.10;80.40
48978;DHT22;34793;48.940;2.618;2023-01-28T01:22:24;9.80;81.40
48978;DHT22;34793;48.940;2.618;2023-01-28T01:24:49;9.80;80.70
48978;DHT22;34793;48.940;2.618;2023-01-28T01:27:15;10.00;80.70
48978;DHT22;34793;48.940;2.618;2023-01-28T01:29:40;10.30;80.00
48978;DHT22;34793;48.940;2.618;2023-01-28T01:32:06;10.30;79.60
48978;DHT22;34793;48.940;2.618;2023-01-28T01:34:31;9.90;80.50
48978;DHT22;34793;48.940;2.618;2023-01-28T01:36:57;9.80;80.60
48978;DHT22;34793;48.940;2.618;2023-01-28T01:39:22;9.90;80.80
48978;DHT22;34793;48.940;2.618;2023-01-28T01:41:48;9.70;81.40
48978;DHT22;34793;48.940;2.618;2023-01-28T01:46:57;9.60;81.40
48978;DHT22;34793;48.940;2.618;2023-01-28T01:49:24;9.70;81.40
48978;DHT22;34793;48.940;2.618;2023-01-28T01:51:51;9.60;81.40
48978;DHT22;34793;48.940;2.618;2023-01-28T01:54:17;9.60;81.70
48978;DHT22;34793;48.940;2.618;2023-01-28T01:56:43;9.80;81.10
48978;DHT22;34793;48.940;2.618;2023-01-28T01:59:11;9.70;81.10
48978;DHT22;34793;48.940;2.618;2023-01-28T02:01:38;9.70;80.90
48978;DHT22;34793;48.940;2.618;2023-01-28T02:04:24;9.80;80.90
48978;DHT22;34793;48.940;2.618;2023-01-28T02:06:50;9.80;80.80
48978;DHT22;34793;48.940;2.618;2023-01-28T02:09:22;9.60;81.20
48978;DHT22;34793;48.940;2.618;2023-01-28T02:11:48;9.70;80.80
48978;DHT22;34793;48.940;2.618;2023-01-28T02:14:15;9.70;80.80
48978;DHT22;34793;48.940;2.618;2023-01-28T02:16:40;9.70;80.80
48978;DHT22;34793;48.940;2.618;2023-01-28T02:19:06;9.70;80.50
48978;DHT22;34793;48.940;2.618;2023-01-28T02:29:31;9.40;81.70
48978;DHT22;34793;48.940;2.618;2023-01-28T02:34:28;9.40;82.00
48978;DHT22;34793;48.940;2.618;2023-01-28T02:36:59;9.20;82.60
48978;DHT22;34793;48.940;2.618;2023-01-28T02:39:28;9.50;82.00
48978;DHT22;34793;48.940;2.618;2023-01-28T02:41:56;9.70;81.30
48978;DHT22;34793;48.940;2.618;2023-01-28T02:44:22;9.40;82.00
48978;DHT22;34793;48.940;2.618;2023-01-28T02:46:50;9.40;82.10
48978;DHT22;34793;48.940;2.618;2023-01-28T02:49:38;9.30;82.30
48978;DHT22;34793;48.940;2.618;2023-01-28T02:55:12;9.70;81.80
48978;DHT22;34793;48.940;2.618;2023-01-28T02:57:47;9.80;80.80
48978;DHT22;34793;48.940;2.618;2023-01-28T03:00:20;9.70;81.00
48978;DHT22;34793;48.940;2.618;2023-01-28T03:02:52;9.70;81.20
48978;DHT22;34793;48.940;2.618;2023-01-28T03:07:52;9.70;81.00
48978;DHT22;34793;48.940;2.618;2023-01-28T03:10:20;9.80;81.10
48978;DHT22;34793;48.940;2.618;2023-01-28T03:12:47;9.80;80.70
48978;DHT22;34793;48.940;2.618;2023-01-28T03:15:33;9.50;80.90
48978;DHT22;34793;48.940;2.618;2023-01-28T03:21:11;9.40;81.70
48978;DHT22;34793;48.940;2.618;2023-01-28T03:23:58;9.60;81.30
48978;DHT22;34793;48.940;2.618;2023-01-28T03:26:54;9.60;80.90
48978;DHT22;34793;48.940;2.618;2023-01-28T03:29:39;9.50;81.00
48978;DHT22;34793;48.940;2.618;2023-01-28T03:32:24;9.60;81.20
48978;DHT22;34793;48.940;2.618;2023-01-28T03:35:09;9.30;81.70
48978;DHT22;34793;48.940;2.618;2023-01-28T03:37:53;9.30;82.80
48978;DHT22;34793;48.940;2.618;2023-01-28T03:40:19;9.30;81.90
48978;DHT22;34793;48.940;2.618;2023-01-28T03:42:44;9.30;82.00
48978;DHT22;34793;48.940;2.618;2023-01-28T03:45:10;9.10;82.10
48978;DHT22;34793;48.940;2.618;2023-01-28T03:47:36;9.10;82.40
48978;DHT22;34793;48.940;2.618;2023-01-28T03:50:01;9.00;83.20
48978;DHT22;34793;48.940;2.618;2023-01-28T03:52:31;8.90;83.10
48978;DHT22;34793;48.940;2.618;2023-01-28T03:54:57;8.90;84.00
48978;DHT22;34793;48.940;2.618;2023-01-28T03:57:23;8.90;83.40
48978;DHT22;34793;48.940;2.618;2023-01-28T03:59:49;8.90;83.60
48978;DHT22;34793;48.940;2.618;2023-01-28T04:02:16;8.80;83.40
48978;DHT22;34793;48.940;2.618;2023-01-28T04:04:41;8.70;84.40
48978;DHT22;34793;48.940;2.618;2023-01-28T04:07:07;8.80;84.10
48978;DHT22;34793;48.940;2.618;2023-01-28T04:09:35;9.00;83.20
48978;DHT22;34793;48.940;2.618;2023-01-28T04:12:01;9.20;82.60
48978;DHT22;34793;48.940;2.618;2023-01-28T04:14:26;9.20;82.00
48978;DHT22;34793;48.940;2.618;2023-01-28T04:16:52;9.10;82.40
48978;DHT22;34793;48.940;2.618;2023-01-28T04:19:19;9.20;82.40
48978;DHT22;34793;48.940;2.618;2023-01-28T04:21:45;9.20;82.20
48978;DHT22;34793;48.940;2.618;2023-01-28T04:24:11;9.30;82.20
48978;DHT22;34793;48.940;2.618;2023-01-28T04:26:37;9.40;82.00
48978;DHT22;34793;48.940;2.618;2023-01-28T04:29:02;9.30;82.10
48978;DHT22;34793;48.940;2.618;2023-01-28T04:31:28;9.50;81.30
48978;DHT22;34793;48.940;2.618;2023-01-28T04:33:54;9.50;80.80
48978;DHT22;34793;48.940;2.618;2023-01-28T04:36:19;9.40;81.20
48978;DHT22;34793;48.940;2.618;2023-01-28T04:38:45;9.40;81.50
48978;DHT22;34793;48.940;2.618;2023-01-28T04:41:10;9.40;81.60
48978;DHT22;34793;48.940;2.618;2023-01-28T04:43:36;9.30;81.60
48978;DHT22;34793;48.940;2.618;2023-01-28T04:46:01;9.30;81.50
48978;DHT22;34793;48.940;2.618;2023-01-28T04:48:27;9.30;81.80
48978;DHT22;34793;48.940;2.618;2023-01-28T04:50:54;9.80;82.10
48978;DHT22;34793;48.940;2.618;2023-01-28T04:53:20;9.00;82.50
48978;DHT22;34793;48.940;2.618;2023-01-28T04:55:45;9.00;83.00
48978;DHT22;34793;48.940;2.618;2023-01-28T04:58:11;9.00;83.00
48978;DHT22;34793;48.940;2.618;2023-01-28T05:00:36;9.10;82.60
48978;DHT22;34793;48.940;2.618;2023-01-28T05:03:02;9.00;82.60
48978;DHT22;34793;48.940;2.618;2023-01-28T05:05:27;8.90;83.10
48978;DHT22;34793;48.940;2.618;2023-01-28T05:07:53;8.90;83.10
48978;DHT22;34793;48.940;2.618;2023-01-28T05:10:19;9.10;82.60
48978;DHT22;34793;48.940;2.618;2023-01-28T05:12:46;9.20;82.70
48978;DHT22;34793;48.940;2.618;2023-01-28T05:15:12;9.20;82.20
48978;DHT22;34793;48.940;2.618;2023-01-28T05:17:37;9.40;81.80
48978;DHT22;34793;48.940;2.618;2023-01-28T05:20:03;9.50;81.30
48978;DHT22;34793;48.940;2.618;2023-01-28T05:22:29;9.60;81.00
48978;DHT22;34793;48.940;2.618;2023-01-28T05:24:54;9.70;80.90
48978;DHT22;34793;48.940;2.618;2023-01-28T05:27:20;9.70;81.30
48978;DHT22;34793;48.940;2.618;2023-01-28T05:29:45;9.60;80.90
48978;DHT22;34793;48.940;2.618;2023-01-28T05:32:11;9.60;81.00
48978;DHT22;34793;48.940;2.618;2023-01-28T05:34:36;9.40;80.90
48978;DHT22;34793;48.940;2.618;2023-01-28T05:37:03;9.50;80.80
48978;DHT22;34793;48.940;2.618;2023-01-28T05:39:28;9.30;81.60
48978;DHT22;34793;48.940;2.618;2023-01-28T05:41:54;9.30;81.40
48978;DHT22;34793;48.940;2.618;2023-01-28T05:44:19;9.40;81.40
48978;DHT22;34793;48.940;2.618;2023-01-28T05:46:45;9.40;81.30
48978;DHT22;34793;48.940;2.618;2023-01-28T05:49:11;9.40;80.90
48978;DHT22;34793;48.940;2.618;2023-01-28T05:51:41;9.60;80.80
48978;DHT22;34793;48.940;2.618;2023-01-28T05:54:07;9.30;81.20
48978;DHT22;34793;48.940;2.618;2023-01-28T05:56:32;9.40;80.80
48978;DHT22;34793;48.940;2.618;2023-01-28T05:58:59;9.40;81.00
48978;DHT22;34793;48.940;2.618;2023-01-28T06:01:24;9.20;81.50
48978;DHT22;34793;48.940;2.618;2023-01-28T06:03:50;9.50;81.40
48978;DHT22;34793;48.940;2.618;2023-01-28T06:06:15;9.50;80.90
48978;DHT22;34793;48.940;2.618;2023-01-28T06:08:41;9.60;80.60
48978;DHT22;34793;48.940;2.618;2023-01-28T06:11:06;9.60;80.30
48978;DHT22;34793;48.940;2.618;2023-01-28T06:13:32;9.50;80.40
48978;DHT22;34793;48.940;2.618;2023-01-28T06:15:57;9.40;81.40
48978;DHT22;34793;48.940;2.618;2023-01-28T06:18:23;9.50;81.10
48978;DHT22;34793;48.940;2.618;2023-01-28T06:20:49;9.60;80.90
48978;DHT22;34793;48.940;2.618;2023-01-28T06:23:14;9.50;80.90
48978;DHT22;34793;48.940;2.618;2023-01-28T06:25:40;9.40;80.70
48978;DHT22;34793;48.940;2.618;2023-01-28T06:28:05;9.40;81.10
48978;DHT22;34793;48.940;2.618;2023-01-28T06:30:31;9.50;80.90
48978;DHT22;34793;48.940;2.618;2023-01-28T06:32:56;9.50;81.10
48978;DHT22;34793;48.940;2.618;2023-01-28T06:35:22;9.50;80.90
48978;DHT22;34793;48.940;2.618;2023-01-28T06:37:48;9.50;80.70
48978;DHT22;34793;48.940;2.618;2023-01-28T06:40:13;9.60;80.40
48978;DHT22;34793;48.940;2.618;2023-01-28T06:42:39;9.30;81.00
48978;DHT22;34793;48.940;2.618;2023-01-28T06:45:04;9.20;81.80
48978;DHT22;34793;48.940;2.618;2023-01-28T06:47:30;9.10;82.00
48978;DHT22;34793;48.940;2.618;2023-01-28T06:49:55;9.20;81.90
48978;DHT22;34793;48.940;2.618;2023-01-28T06:52:21;9.40;81.30
48978;DHT22;34793;48.940;2.618;2023-01-28T06:54:46;9.40;81.00
48978;DHT22;34793;48.940;2.618;2023-01-28T06:57:12;9.50;80.30
48978;DHT22;34793;48.940;2.618;2023-01-28T06:59:37;9.70;80.20
48978;DHT22;34793;48.940;2.618;2023-01-28T07:02:02;9.60;80.40
48978;DHT22;34793;48.940;2.618;2023-01-28T07:04:28;9.60;80.40
48978;DHT22;34793;48.940;2.618;2023-01-28T07:06:53;9.60;80.30
48978;DHT22;34793;48.940;2.618;2023-01-28T07:09:19;9.80;79.90
48978;DHT22;34793;48.940;2.618;2023-01-28T07:11:44;9.70;79.40
48978;DHT22;34793;48.940;2.618;2023-01-28T07:14:10;9.60;80.60
48978;DHT22;34793;48.940;2.618;2023-01-28T07:16:35;9.70;80.00
48978;DHT22;34793;48.940;2.618;2023-01-28T07:19:01;9.80;79.90
48978;DHT22;34793;48.940;2.618;2023-01-28T07:21:27;9.90;79.60
48978;DHT22;34793;48.940;2.618;2023-01-28T07:23:52;10.10;79.00
48978;DHT22;34793;48.940;2.618;2023-01-28T07:26:18;10.00;79.10
48978;DHT22;34793;48.940;2.618;2023-01-28T07:28:44;10.10;78.60
48978;DHT22;34793;48.940;2.618;2023-01-28T07:31:10;10.20;78.50
48978;DHT22;34793;48.940;2.618;2023-01-28T07:33:35;10.10;78.70
48978;DHT22;34793;48.940;2.618;2023-01-28T07:36:01;10.30;78.60
48978;DHT22;34793;48.940;2.618;2023-01-28T07:38:26;10.50;77.60
48978;DHT22;34793;48.940;2.618;2023-01-28T07:40:52;10.50;77.10
48978;DHT22;34793;48.940;2.618;2023-01-28T07:43:17;10.50;77.50
48978;DHT22;34793;48.940;2.618;2023-01-28T07:45:43;10.70;77.40
48978;DHT22;34793;48.940;2.618;2023-01-28T07:48:09;10.70;76.90
48978;DHT22;34793;48.940;2.618;2023-01-28T07:50:36;10.60;76.90
48978;DHT22;34793;48.940;2.618;2023-01-28T07:53:02;10.70;77.40
48978;DHT22;34793;48.940;2.618;2023-01-28T07:55:28;10.50;77.70
48978;DHT22;34793;48.940;2.618;2023-01-28T07:57:55;10.20;78.30
48978;DHT22;34793;48.940;2.618;2023-01-28T08:00:21;10.20;78.10
48978;DHT22;34793;48.940;2.618;2023-01-28T08:02:47;10.10;78.40
48978;DHT22;34793;48.940;2.618;2023-01-28T08:05:17;10.10;78.60
48978;DHT22;34793;48.940;2.618;2023-01-28T08:07:43;10.20;78.40
48978;DHT22;34793;48.940;2.618;2023-01-28T08:10:09;10.10;78.90
48978;DHT22;34793;48.940;2.618;2023-01-28T08:12:35;10.10;78.40
48978;DHT22;34793;48.940;2.618;2023-01-28T08:15:00;10.30;78.70
48978;DHT22;34793;48.940;2.618;2023-01-28T08:17:26;10.20;78.60
48978;DHT22;34793;48.940;2.618;2023-01-28T08:19:52;10.10;78.20
48978;DHT22;34793;48.940;2.618;2023-01-28T08:22:17;10.00;78.80
48978;DHT22;34793;48.940;2.618;2023-01-28T08:24:43;10.30;78.70
48978;DHT22;34793;48.940;2.618;2023-01-28T08:27:08;10.30;78.30
48978;DHT22;34793;48.940;2.618;2023-01-28T08:29:34;10.60;77.50
48978;DHT22;34793;48.940;2.618;2023-01-28T08:31:59;10.60;77.30
48978;DHT22;34793;48.940;2.618;2023-01-28T08:34:25;10.50;77.30
48978;DHT22;34793;48.940;2.618;2023-01-28T08:36:50;10.50;77.30
48978;DHT22;34793;48.940;2.618;2023-01-28T08:39:15;10.50;76.60
48978;DHT22;34793;48.940;2.618;2023-01-28T08:41:41;10.30;77.10
48978;DHT22;34793;48.940;2.618;2023-01-28T08:44:06;10.30;78.00
48978;DHT22;34793;48.940;2.618;2023-01-28T08:46:32;9.80;79.00
48978;DHT22;34793;48.940;2.618;2023-01-28T08:48:57;9.60;79.30
48978;DHT22;34793;48.940;2.618;2023-01-28T08:51:23;9.50;80.10
48978;DHT22;34793;48.940;2.618;2023-01-28T08:53:48;9.60;79.60
48978;DHT22;34793;48.940;2.618;2023-01-28T08:56:14;9.70;79.30
48978;DHT22;34793;48.940;2.618;2023-01-28T08:58:40;10.20;79.10
48978;DHT22;34793;48.940;2.618;2023-01-28T09:01:06;9.60;79.10
48978;DHT22;34793;48.940;2.618;2023-01-28T09:03:31;9.50;80.30
48978;DHT22;34793;48.940;2.618;2023-01-28T09:06:00;9.50;79.60
48978;DHT22;34793;48.940;2.618;2023-01-28T09:08:26;9.70;79.80
48978;DHT22;34793;48.940;2.618;2023-01-28T09:10:55;9.60;78.20
48978;DHT22;34793;48.940;2.618;2023-01-28T09:13:21;9.60;79.50
48978;DHT22;34793;48.940;2.618;2023-01-28T09:15:47;9.70;78.90
48978;DHT22;34793;48.940;2.618;2023-01-28T09:18:12;9.80;79.00
48978;DHT22;34793;48.940;2.618;2023-01-28T09:20:37;9.90;78.60
48978;DHT22;34793;48.940;2.618;2023-01-28T09:23:03;9.90;78.30
48978;DHT22;34793;48.940;2.618;2023-01-28T09:25:29;10.10;78.30
48978;DHT22;34793;48.940;2.618;2023-01-28T09:27:54;10.00;78.20
48978;DHT22;34793;48.940;2.618;2023-01-28T09:30:20;9.90;78.60
48978;DHT22;34793;48.940;2.618;2023-01-28T09:32:48;10.00;78.20
48978;DHT22;34793;48.940;2.618;2023-01-28T09:35:14;10.30;77.90
48978;DHT22;34793;48.940;2.618;2023-01-28T09:37:40;10.00;77.60
48978;DHT22;34793;48.940;2.618;2023-01-28T09:40:06;10.10;77.70
48978;DHT22;34793;48.940;2.618;2023-01-28T09:42:41;9.90;77.80
48978;DHT22;34793;48.940;2.618;2023-01-28T09:45:16;10.00;78.30
48978;DHT22;34793;48.940;2.618;2023-01-28T09:47:56;10.00;78.00
48978;DHT22;34793;48.940;2.618;2023-01-28T09:50:39;10.20;77.10
48978;DHT22;34793;48.940;2.618;2023-01-28T09:53:08;10.10;76.30
48978;DHT22;34793;48.940;2.618;2023-01-28T09:55:36;10.20;77.00
48978;DHT22;34793;48.940;2.618;2023-01-28T09:58:05;10.20;76.60
48978;DHT22;34793;48.940;2.618;2023-01-28T10:05:35;10.10;76.20
48978;DHT22;34793;48.940;2.618;2023-01-28T10:10:46;10.10;75.70
48978;DHT22;34793;48.940;2.618;2023-01-28T10:13:27;10.00;76.20
48978;DHT22;34793;48.940;2.618;2023-01-28T10:18:41;10.10;76.70
48978;DHT22;34793;48.940;2.618;2023-01-28T10:21:42;10.20;76.00
48978;DHT22;34793;48.940;2.618;2023-01-28T10:24:02;10.20;76.50
48978;DHT22;34793;48.940;2.618;2023-01-28T10:26:37;10.10;76.30
48978;DHT22;34793;48.940;2.618;2023-01-28T10:29:08;10.10;76.50
48978;DHT22;34793;48.940;2.618;2023-01-28T10:31:36;10.30;76.60
48978;DHT22;34793;48.940;2.618;2023-01-28T10:34:05;10.20;75.80
48978;DHT22;34793;48.940;2.618;2023-01-28T10:36:30;10.10;75.70
48978;DHT22;34793;48.940;2.618;2023-01-28T10:38:56;9.70;77.00
48978;DHT22;34793;48.940;2.618;2023-01-28T10:41:22;9.70;77.80
48978;DHT22;34793;48.940;2.618;2023-01-28T10:43:50;9.80;77.10
48978;DHT22;34793;48.940;2.618;2023-01-28T10:46:31;9.80;77.10
48978;DHT22;34793;48.940;2.618;2023-01-28T10:49:04;10.00;76.80
48978;DHT22;34793;48.940;2.618;2023-01-28T10:51:32;9.90;77.10
48978;DHT22;34793;48.940;2.618;2023-01-28T10:53:58;10.10;76.10
48978;DHT22;34793;48.940;2.618;2023-01-28T10:56:24;9.90;76.30
48978;DHT22;34793;48.940;2.618;2023-01-28T11:01:23;9.70;77.50
48978;DHT22;34793;48.940;2.618;2023-01-28T11:03:52;9.30;78.30
48978;DHT22;34793;48.940;2.618;2023-01-28T11:06:23;9.30;78.80
48978;DHT22;34793;48.940;2.618;2023-01-28T11:08:48;9.30;78.70
48978;DHT22;34793;48.940;2.618;2023-01-28T11:11:14;9.80;78.40
48978;DHT22;34793;48.940;2.618;2023-01-28T11:13:48;9.70;77.40
48978;DHT22;34793;48.940;2.618;2023-01-28T11:16:16;9.90;77.70
48978;DHT22;34793;48.940;2.618;2023-01-28T11:18:47;9.60;77.10
48978;DHT22;34793;48.940;2.618;2023-01-28T11:21:17;9.80;77.30
48978;DHT22;34793;48.940;2.618;2023-01-28T11:23:48;10.10;76.70
48978;DHT22;34793;48.940;2.618;2023-01-28T11:26:16;9.90;76.70
48978;DHT22;34793;48.940;2.618;2023-01-28T11:28:43;10.00;76.60
48978;DHT22;34793;48.940;2.618;2023-01-28T11:31:10;10.00;76.70
48978;DHT22;34793;48.940;2.618;2023-01-28T11:33:43;10.30;77.00
48978;DHT22;34793;48.940;2.618;2023-01-28T11:36:17;10.30;76.00
48978;DHT22;34793;48.940;2.618;2023-01-28T11:38:46;10.10;76.00
48978;DHT22;34793;48.940;2.618;2023-01-28T11:41:12;10.20;75.50
48978;DHT22;34793;48.940;2.618;2023-01-28T11:43:38;10.20;76.00
48978;DHT22;34793;48.940;2.618;2023-01-28T11:46:19;10.10;75.90
48978;DHT22;34793;48.940;2.618;2023-01-28T11:54:08;9.80;77.00
48978;DHT22;34793;48.940;2.618;2023-01-28T12:07:45;10.60;76.20
48978;DHT22;34793;48.940;2.618;2023-01-28T12:18:34;10.80;74.90
48978;DHT22;34793;48.940;2.618;2023-01-28T12:23:47;10.60;74.70
48978;DHT22;34793;48.940;2.618;2023-01-28T12:26:18;10.70;74.80
48978;DHT22;34793;48.940;2.618;2023-01-28T12:33:57;10.10;75.70
48978;DHT22;34793;48.940;2.618;2023-01-28T12:41:17;10.10;75.70
48978;DHT22;34793;48.940;2.618;2023-01-28T12:43:59;10.10;75.00
48978;DHT22;34793;48.940;2.618;2023-01-28T12:48:59;9.90;74.00
48978;DHT22;34793;48.940;2.618;2023-01-28T12:52:14;9.90;74.30
48978;DHT22;34793;48.940;2.618;2023-01-28T12:56:57;9.80;75.10
48978;DHT22;34793;48.940;2.618;2023-01-28T13:01:56;9.90;73.80
48978;DHT22;34793;48.940;2.618;2023-01-28T13:04:34;9.80;74.30
48978;DHT22;34793;48.940;2.618;2023-01-28T13:07:04;9.80;74.00
48978;DHT22;34793;48.940;2.618;2023-01-28T13:09:30;9.80;74.80
48978;DHT22;34793;48.940;2.618;2023-01-28T13:11:58;10.00;74.40
48978;DHT22;34793;48.940;2.618;2023-01-28T13:17:28;9.90;73.70
48978;DHT22;34793;48.940;2.618;2023-01-28T13:19:54;10.00;73.70
48978;DHT22;34793;48.940;2.618;2023-01-28T13:24:54;10.10;72.90
48978;DHT22;34793;48.940;2.618;2023-01-28T13:27:23;10.20;71.80
48978;DHT22;34793;48.940;2.618;2023-01-28T13:29:58;10.10;72.20
48978;DHT22;34793;48.940;2.618;2023-01-28T13:32:28;9.90;73.20
48978;DHT22;34793;48.940;2.618;2023-01-28T13:34:58;10.20;71.80
48978;DHT22;34793;48.940;2.618;2023-01-28T13:39:51;10.00;72.20
48978;DHT22;34793;48.940;2.618;2023-01-28T13:42:27;10.00;70.80
48978;DHT22;34793;48.940;2.618;2023-01-28T13:44:53;9.90;71.00
48978;DHT22;34793;48.940;2.618;2023-01-28T13:47:20;9.30;72.10
48978;DHT22;34793;48.940;2.618;2023-01-28T13:49:54;9.50;72.30
48978;DHT22;34793;48.940;2.618;2023-01-28T13:52:24;9.70;72.10
48978;DHT22;34793;48.940;2.618;2023-01-28T13:55:02;9.80;71.80
48978;DHT22;34793;48.940;2.618;2023-01-28T14:00:07;10.00;72.10
48978;DHT22;34793;48.940;2.618;2023-01-28T14:10:40;9.60;73.60
48978;DHT22;34793;48.940;2.618;2023-01-28T14:18:18;9.60;73.00
48978;DHT22;34793;48.940;2.618;2023-01-28T14:20:47;9.50;73.30
48978;DHT22;34793;48.940;2.618;2023-01-28T14:23:20;9.60;72.50
48978;DHT22;34793;48.940;2.618;2023-01-28T14:28:14;10.30;73.40
48978;DHT22;34793;48.940;2.618;2023-01-28T14:30:55;9.70;73.30
48978;DHT22;34793;48.940;2.618;2023-01-28T14:33:22;9.90;73.00
48978;DHT22;34793;48.940;2.618;2023-01-28T14:35:47;9.70;73.20
48978;DHT22;34793;48.940;2.618;2023-01-28T14:38:14;9.60;72.80
48978;DHT22;34793;48.940;2.618;2023-01-28T14:40:41;9.70;72.90
48978;DHT22;34793;48.940;2.618;2023-01-28T14:43:08;10.10;72.60
48978;DHT22;34793;48.940;2.618;2023-01-28T14:51:10;10.50;72.10
48978;DHT22;34793;48.940;2.618;2023-01-28T14:58:49;10.30;70.10
48978;DHT22;34793;48.940;2.618;2023-01-28T15:01:28;10.30;70.70
48978;DHT22;34793;48.940;2.618;2023-01-28T15:03:54;10.40;70.90
48978;DHT22;34793;48.940;2.618;2023-01-28T15:06:21;10.40;70.10
48978;DHT22;34793;48.940;2.618;2023-01-28T15:08:48;10.20;70.90
48978;DHT22;34793;48.940;2.618;2023-01-28T15:11:15;10.00;70.90
48978;DHT22;34793;48.940;2.618;2023-01-28T15:13:43;9.90;70.80
48978;DHT22;34793;48.940;2.618;2023-01-28T15:16:18;9.80;71.60
48978;DHT22;34793;48.940;2.618;2023-01-28T15:18:44;9.70;71.20
48978;DHT22;34793;48.940;2.618;2023-01-28T15:21:10;9.90;70.60
48978;DHT22;34793;48.940;2.618;2023-01-28T15:23:37;10.00;70.30
48978;DHT22;34793;48.940;2.618;2023-01-28T15:26:07;10.00;70.30
48978;DHT22;34793;48.940;2.618;2023-01-28T15:28:35;9.80;69.80
48978;DHT22;34793;48.940;2.618;2023-01-28T15:31:01;9.50;71.00
48978;DHT22;34793;48.940;2.618;2023-01-28T15:33:27;9.50;70.90
48978;DHT22;34793;48.940;2.618;2023-01-28T15:35:53;9.60;70.10
48978;DHT22;34793;48.940;2.618;2023-01-28T15:38:19;9.60;71.20
48978;DHT22;34793;48.940;2.618;2023-01-28T15:40:46;9.80;70.60
48978;DHT22;34793;48.940;2.618;2023-01-28T15:43:19;9.70;70.20
48978;DHT22;34793;48.940;2.618;2023-01-28T15:45:46;9.80;70.00
48978;DHT22;34793;48.940;2.618;2023-01-28T15:48:13;9.90;69.80
48978;DHT22;34793;48.940;2.618;2023-01-28T15:50:39;9.90;70.90
48978;DHT22;34793;48.940;2.618;2023-01-28T15:53:08;9.90;70.10
48978;DHT22;34793;48.940;2.618;2023-01-28T15:55:36;9.60;70.00
48978;DHT22;34793;48.940;2.618;2023-01-28T15:58:13;9.60;71.50
48978;DHT22;34793;48.940;2.618;2023-01-28T16:00:39;9.50;70.80
48978;DHT22;34793;48.940;2.618;2023-01-28T16:03:08;9.70;69.50
48978;DHT22;34793;48.940;2.618;2023-01-28T16:05:37;9.70;70.00
48978;DHT22;34793;48.940;2.618;2023-01-28T16:08:10;9.60;70.20
48978;DHT22;34793;48.940;2.618;2023-01-28T16:10:36;9.40;70.20
48978;DHT22;34793;48.940;2.618;2023-01-28T16:16:01;9.10;70.60
48978;DHT22;34793;48.940;2.618;2023-01-28T16:20:59;8.90;71.50
48978;DHT22;34793;48.940;2.618;2023-01-28T16:23:26;9.20;71.70
48978;DHT22;34793;48.940;2.618;2023-01-28T16:25:58;9.40;70.90
48978;DHT22;34793;48.940;2.618;2023-01-28T16:28:25;9.70;70.50
48978;DHT22;34793;48.940;2.618;2023-01-28T16:30:50;10.00;71.10
48978;DHT22;34793;48.940;2.618;2023-01-28T16:33:17;9.90;69.70
48978;DHT22;34793;48.940;2.618;2023-01-28T16:35:43;9.50;70.30
48978;DHT22;34793;48.940;2.618;2023-01-28T16:38:08;9.30;70.60
48978;DHT22;34793;48.940;2.618;2023-01-28T16:40:34;9.10;70.30
48978;DHT22;34793;48.940;2.618;2023-01-28T16:43:02;9.10;70.50
48978;DHT22;34793;48.940;2.618;2023-01-28T16:45:27;9.10;70.60
48978;DHT22;34793;48.940;2.618;2023-01-28T16:47:53;9.10;71.20
48978;DHT22;34793;48.940;2.618;2023-01-28T16:50:19;9.10;71.00
48978;DHT22;34793;48.940;2.618;2023-01-28T16:52:47;8.70;71.20
48978;DHT22;34793;48.940;2.618;2023-01-28T16:55:13;8.80;71.20
48978;DHT22;34793;48.940;2.618;2023-01-28T16:57:39;9.00;70.80
48978;DHT22;34793;48.940;2.618;2023-01-28T17:00:06;9.20;70.40
48978;DHT22;34793;48.940;2.618;2023-01-28T17:02:31;9.40;70.40
48978;DHT22;34793;48.940;2.618;2023-01-28T17:04:57;9.50;69.00
48978;DHT22;34793;48.940;2.618;2023-01-28T17:07:22;9.50;69.60
48978;DHT22;34793;48.940;2.618;2023-01-28T17:09:48;9.50;70.20
48978;DHT22;34793;48.940;2.618;2023-01-28T17:12:14;9.60;70.00
48978;DHT22;34793;48.940;2.618;2023-01-28T17:14:39;9.50;69.50
48978;DHT22;34793;48.940;2.618;2023-01-28T17:17:05;9.50;70.50
48978;DHT22;34793;48.940;2.618;2023-01-28T17:19:30;9.90;70.10
48978;DHT22;34793;48.940;2.618;2023-01-28T17:21:59;9.70;69.20
48978;DHT22;34793;48.940;2.618;2023-01-28T17:24:24;9.70;69.10
48978;DHT22;34793;48.940;2.618;2023-01-28T17:26:50;9.80;69.60
48978;DHT22;34793;48.940;2.618;2023-01-28T17:29:16;9.80;69.00
48978;DHT22;34793;48.940;2.618;2023-01-28T17:31:41;9.80;69.50
48978;DHT22;34793;48.940;2.618;2023-01-28T17:34:07;9.90;69.10
48978;DHT22;34793;48.940;2.618;2023-01-28T17:36:35;10.10;69.40
48978;DHT22;34793;48.940;2.618;2023-01-28T17:39:01;10.20;68.90
48978;DHT22;34793;48.940;2.618;2023-01-28T17:41:26;10.20;68.50
48978;DHT22;34793;48.940;2.618;2023-01-28T17:43:53;10.30;68.00
48978;DHT22;34793;48.940;2.618;2023-01-28T17:46:19;9.90;68.80